RJOW(METAR)
05/24 14:00
METAR RJOW 240500Z 29015KT 9999 FEW035 26/16 Q1012 RMK 1CU035 A2991=
戻る
トップページへ戻る
IMOC Co,.Ltd.